KRYV

Watertown Municipal Airport

Watertown, Wisconsin, USA
METAR KRYV 220735Z AUTO 00000KT 10SM CLR M01/M02 A3001 RMK AO2 T10151021
Observed Flight Rules
Oct-22 @ 07:35 UTC (22 minutes ago) Visual Flight Rules
Visibility Clouds
10 miles
  • Clear skies
Temperatures Readings
Current -2°C / 28°F
Dewpoint -2°C / 28°F
Humidity 100%
Altimeter 30.01" Hg
Pressure 1016 hPa
Elevation 254
METAR KRYV 220735Z AUTO 00000KT 10SM CLR M01/M02 A3001 RMK AO2 T10151021
Observed Flight Rules
Oct-22 @ 07:35 UTC
(22 minutes ago)
VFR
Clouds
  • Clear skies
Temperature Dewpoint
-2°C / 28°F -2°C / 28°F
Humidity Altimeter Pressure
100% 30.01" Hg 1016 hPa